sensor_id;sensor_type;location;lat;lon;timestamp;temperature;humidity
15991;DHT22;8100;50.994;4.538;2023-10-09T00:00:45;14.10;99.90
15991;DHT22;8100;50.994;4.538;2023-10-09T00:03:47;14.10;99.90
15991;DHT22;8100;50.994;4.538;2023-10-09T00:06:40;14.10;99.90
15991;DHT22;8100;50.994;4.538;2023-10-09T00:09:27;14.00;99.90
15991;DHT22;8100;50.994;4.538;2023-10-09T00:12:19;14.00;99.90
15991;DHT22;8100;50.994;4.538;2023-10-09T00:15:09;14.00;99.90
15991;DHT22;8100;50.994;4.538;2023-10-09T00:17:59;14.00;99.90
15991;DHT22;8100;50.994;4.538;2023-10-09T00:20:47;13.90;99.90
15991;DHT22;8100;50.994;4.538;2023-10-09T00:23:40;14.00;99.90
15991;DHT22;8100;50.994;4.538;2023-10-09T00:26:28;14.30;99.90
15991;DHT22;8100;50.994;4.538;2023-10-09T00:29:17;14.30;99.90
15991;DHT22;8100;50.994;4.538;2023-10-09T00:32:08;14.40;99.90
15991;DHT22;8100;50.994;4.538;2023-10-09T00:35:00;14.20;99.90
15991;DHT22;8100;50.994;4.538;2023-10-09T00:38:07;14.40;99.90
15991;DHT22;8100;50.994;4.538;2023-10-09T00:41:04;14.30;99.90
15991;DHT22;8100;50.994;4.538;2023-10-09T00:43:56;14.30;99.90
15991;DHT22;8100;50.994;4.538;2023-10-09T00:46:45;14.40;99.90
15991;DHT22;8100;50.994;4.538;2023-10-09T00:49:33;14.30;99.90
15991;DHT22;8100;50.994;4.538;2023-10-09T00:52:22;14.40;99.90
15991;DHT22;8100;50.994;4.538;2023-10-09T00:55:18;14.50;99.90
15991;DHT22;8100;50.994;4.538;2023-10-09T00:58:08;14.70;99.90
15991;DHT22;8100;50.994;4.538;2023-10-09T01:00:58;14.80;99.90
15991;DHT22;8100;50.994;4.538;2023-10-09T01:03:45;15.00;99.90
15991;DHT22;8100;50.994;4.538;2023-10-09T01:06:37;15.00;99.90
15991;DHT22;8100;50.994;4.538;2023-10-09T01:09:30;15.00;99.90
15991;DHT22;8100;50.994;4.538;2023-10-09T01:12:23;15.20;99.90
15991;DHT22;8100;50.994;4.538;2023-10-09T01:15:10;15.20;99.90
15991;DHT22;8100;50.994;4.538;2023-10-09T01:18:05;15.30;99.90
15991;DHT22;8100;50.994;4.538;2023-10-09T01:20:54;15.30;99.90
15991;DHT22;8100;50.994;4.538;2023-10-09T01:23:43;15.20;99.90
15991;DHT22;8100;50.994;4.538;2023-10-09T01:26:49;15.30;99.90
15991;DHT22;8100;50.994;4.538;2023-10-09T01:29:40;15.30;99.90
15991;DHT22;8100;50.994;4.538;2023-10-09T01:32:28;15.30;99.90
15991;DHT22;8100;50.994;4.538;2023-10-09T01:35:15;15.30;99.90
15991;DHT22;8100;50.994;4.538;2023-10-09T01:38:07;15.30;99.90
15991;DHT22;8100;50.994;4.538;2023-10-09T01:41:01;15.40;99.90
15991;DHT22;8100;50.994;4.538;2023-10-09T01:43:53;15.40;99.90
15991;DHT22;8100;50.994;4.538;2023-10-09T01:46:47;15.50;99.90
15991;DHT22;8100;50.994;4.538;2023-10-09T01:49:34;15.50;99.90
15991;DHT22;8100;50.994;4.538;2023-10-09T01:52:27;15.50;99.90
15991;DHT22;8100;50.994;4.538;2023-10-09T01:55:16;15.50;99.90
15991;DHT22;8100;50.994;4.538;2023-10-09T01:58:15;15.60;99.90
15991;DHT22;8100;50.994;4.538;2023-10-09T02:01:10;15.60;99.90
15991;DHT22;8100;50.994;4.538;2023-10-09T02:03:58;15.60;99.90
15991;DHT22;8100;50.994;4.538;2023-10-09T02:06:52;15.60;99.90
15991;DHT22;8100;50.994;4.538;2023-10-09T02:09:39;15.60;99.90
15991;DHT22;8100;50.994;4.538;2023-10-09T02:12:32;15.50;99.90
15991;DHT22;8100;50.994;4.538;2023-10-09T02:15:22;15.50;99.90
15991;DHT22;8100;50.994;4.538;2023-10-09T02:18:31;15.50;99.90
15991;DHT22;8100;50.994;4.538;2023-10-09T02:21:39;15.50;99.90
15991;DHT22;8100;50.994;4.538;2023-10-09T02:24:27;15.40;99.90
15991;DHT22;8100;50.994;4.538;2023-10-09T02:27:28;15.50;99.90
15991;DHT22;8100;50.994;4.538;2023-10-09T02:30:30;15.50;99.90
15991;DHT22;8100;50.994;4.538;2023-10-09T02:33:20;15.50;99.90
15991;DHT22;8100;50.994;4.538;2023-10-09T02:36:13;15.40;99.90
15991;DHT22;8100;50.994;4.538;2023-10-09T02:39:01;15.40;99.90
15991;DHT22;8100;50.994;4.538;2023-10-09T02:41:51;15.40;99.90
15991;DHT22;8100;50.994;4.538;2023-10-09T02:44:41;15.30;99.90
15991;DHT22;8100;50.994;4.538;2023-10-09T02:47:33;15.20;99.90
15991;DHT22;8100;50.994;4.538;2023-10-09T02:50:25;15.20;99.90
15991;DHT22;8100;50.994;4.538;2023-10-09T02:53:14;15.20;99.90
15991;DHT22;8100;50.994;4.538;2023-10-09T02:56:05;15.20;99.90
15991;DHT22;8100;50.994;4.538;2023-10-09T02:58:58;15.20;99.90
15991;DHT22;8100;50.994;4.538;2023-10-09T03:01:52;15.20;99.90
15991;DHT22;8100;50.994;4.538;2023-10-09T03:04:40;15.20;99.90
15991;DHT22;8100;50.994;4.538;2023-10-09T03:07:28;15.20;99.90
15991;DHT22;8100;50.994;4.538;2023-10-09T03:10:15;15.20;99.90
15991;DHT22;8100;50.994;4.538;2023-10-09T03:13:03;15.20;99.90
15991;DHT22;8100;50.994;4.538;2023-10-09T03:15:51;15.20;99.90
15991;DHT22;8100;50.994;4.538;2023-10-09T03:18:39;15.30;99.90
15991;DHT22;8100;50.994;4.538;2023-10-09T03:21:28;15.20;99.90
15991;DHT22;8100;50.994;4.538;2023-10-09T03:24:16;15.20;99.90
15991;DHT22;8100;50.994;4.538;2023-10-09T03:27:04;15.20;99.90
15991;DHT22;8100;50.994;4.538;2023-10-09T03:29:51;15.20;99.90
15991;DHT22;8100;50.994;4.538;2023-10-09T03:32:39;15.20;99.90
15991;DHT22;8100;50.994;4.538;2023-10-09T03:35:27;15.20;99.90
15991;DHT22;8100;50.994;4.538;2023-10-09T03:38:15;15.10;99.90
15991;DHT22;8100;50.994;4.538;2023-10-09T03:41:05;15.10;99.90
15991;DHT22;8100;50.994;4.538;2023-10-09T03:43:53;15.00;99.90
15991;DHT22;8100;50.994;4.538;2023-10-09T03:46:41;14.90;99.90
15991;DHT22;8100;50.994;4.538;2023-10-09T03:49:30;15.00;99.90
15991;DHT22;8100;50.994;4.538;2023-10-09T03:52:18;15.00;99.90
15991;DHT22;8100;50.994;4.538;2023-10-09T03:55:07;15.00;99.90
15991;DHT22;8100;50.994;4.538;2023-10-09T03:58:01;15.00;99.90
15991;DHT22;8100;50.994;4.538;2023-10-09T04:00:48;15.00;99.90
15991;DHT22;8100;50.994;4.538;2023-10-09T04:03:37;15.10;99.90
15991;DHT22;8100;50.994;4.538;2023-10-09T04:06:25;15.10;99.90
15991;DHT22;8100;50.994;4.538;2023-10-09T04:09:14;15.10;99.90
15991;DHT22;8100;50.994;4.538;2023-10-09T04:12:22;15.20;99.90
15991;DHT22;8100;50.994;4.538;2023-10-09T04:15:12;15.20;99.90
15991;DHT22;8100;50.994;4.538;2023-10-09T04:18:01;15.20;99.90
15991;DHT22;8100;50.994;4.538;2023-10-09T04:20:50;15.20;99.90
15991;DHT22;8100;50.994;4.538;2023-10-09T04:24:06;15.20;99.90
15991;DHT22;8100;50.994;4.538;2023-10-09T04:27:08;15.20;99.90
15991;DHT22;8100;50.994;4.538;2023-10-09T04:29:57;15.20;99.90
15991;DHT22;8100;50.994;4.538;2023-10-09T04:32:46;15.20;99.90
15991;DHT22;8100;50.994;4.538;2023-10-09T04:35:35;15.20;99.90
15991;DHT22;8100;50.994;4.538;2023-10-09T04:38:23;15.10;99.90
15991;DHT22;8100;50.994;4.538;2023-10-09T04:41:13;15.20;99.90
15991;DHT22;8100;50.994;4.538;2023-10-09T04:44:13;15.20;99.90
15991;DHT22;8100;50.994;4.538;2023-10-09T04:47:06;15.20;99.90
15991;DHT22;8100;50.994;4.538;2023-10-09T04:50:06;15.20;99.90
15991;DHT22;8100;50.994;4.538;2023-10-09T04:52:57;15.10;99.90
15991;DHT22;8100;50.994;4.538;2023-10-09T04:55:59;15.10;99.90
15991;DHT22;8100;50.994;4.538;2023-10-09T04:58:50;15.10;99.90
15991;DHT22;8100;50.994;4.538;2023-10-09T05:01:49;15.00;99.90
15991;DHT22;8100;50.994;4.538;2023-10-09T05:04:46;15.10;99.90
15991;DHT22;8100;50.994;4.538;2023-10-09T05:07:37;15.00;99.90
15991;DHT22;8100;50.994;4.538;2023-10-09T05:10:36;15.00;99.90
15991;DHT22;8100;50.994;4.538;2023-10-09T05:13:39;15.10;99.90
15991;DHT22;8100;50.994;4.538;2023-10-09T05:16:28;15.00;99.90
15991;DHT22;8100;50.994;4.538;2023-10-09T05:19:18;15.00;99.90
15991;DHT22;8100;50.994;4.538;2023-10-09T05:22:21;15.00;99.90
15991;DHT22;8100;50.994;4.538;2023-10-09T05:25:22;15.10;99.90
15991;DHT22;8100;50.994;4.538;2023-10-09T05:28:32;15.10;99.90
15991;DHT22;8100;50.994;4.538;2023-10-09T05:31:18;15.10;99.90
15991;DHT22;8100;50.994;4.538;2023-10-09T05:34:18;15.10;99.90
15991;DHT22;8100;50.994;4.538;2023-10-09T05:37:06;15.00;99.90
15991;DHT22;8100;50.994;4.538;2023-10-09T05:40:05;15.00;99.90
15991;DHT22;8100;50.994;4.538;2023-10-09T05:43:09;15.00;99.90
15991;DHT22;8100;50.994;4.538;2023-10-09T05:46:15;14.90;99.90
15991;DHT22;8100;50.994;4.538;2023-10-09T05:49:03;15.00;99.90
15991;DHT22;8100;50.994;4.538;2023-10-09T05:51:56;15.00;99.90
15991;DHT22;8100;50.994;4.538;2023-10-09T05:55:04;15.10;99.90
15991;DHT22;8100;50.994;4.538;2023-10-09T05:58:26;15.00;99.90
15991;DHT22;8100;50.994;4.538;2023-10-09T06:01:31;15.10;99.90
15991;DHT22;8100;50.994;4.538;2023-10-09T06:04:44;15.10;99.90
15991;DHT22;8100;50.994;4.538;2023-10-09T06:07:41;15.20;99.90
15991;DHT22;8100;50.994;4.538;2023-10-09T06:10:48;15.10;99.90
15991;DHT22;8100;50.994;4.538;2023-10-09T06:13:35;15.00;99.90
15991;DHT22;8100;50.994;4.538;2023-10-09T06:16:31;15.00;99.90
15991;DHT22;8100;50.994;4.538;2023-10-09T06:19:27;15.00;99.90
15991;DHT22;8100;50.994;4.538;2023-10-09T06:22:17;15.00;99.90
15991;DHT22;8100;50.994;4.538;2023-10-09T06:25:37;15.10;99.90
15991;DHT22;8100;50.994;4.538;2023-10-09T06:28:25;15.00;99.90
15991;DHT22;8100;50.994;4.538;2023-10-09T06:31:19;15.10;99.90
15991;DHT22;8100;50.994;4.538;2023-10-09T06:34:15;15.10;99.90
15991;DHT22;8100;50.994;4.538;2023-10-09T06:37:02;15.10;99.90
15991;DHT22;8100;50.994;4.538;2023-10-09T06:40:03;15.10;99.90
15991;DHT22;8100;50.994;4.538;2023-10-09T06:43:15;15.10;99.90
15991;DHT22;8100;50.994;4.538;2023-10-09T06:46:15;15.20;99.90
15991;DHT22;8100;50.994;4.538;2023-10-09T06:49:20;15.20;99.90
15991;DHT22;8100;50.994;4.538;2023-10-09T06:52:19;15.20;99.90
15991;DHT22;8100;50.994;4.538;2023-10-09T06:55:27;15.20;99.90
15991;DHT22;8100;50.994;4.538;2023-10-09T06:58:21;15.30;99.90
15991;DHT22;8100;50.994;4.538;2023-10-09T07:01:13;15.30;99.90
15991;DHT22;8100;50.994;4.538;2023-10-09T07:04:14;15.40;99.90
15991;DHT22;8100;50.994;4.538;2023-10-09T07:07:27;15.40;99.90
15991;DHT22;8100;50.994;4.538;2023-10-09T07:10:22;15.50;99.90
15991;DHT22;8100;50.994;4.538;2023-10-09T07:13:18;15.50;99.90
15991;DHT22;8100;50.994;4.538;2023-10-09T07:16:11;15.60;99.90
15991;DHT22;8100;50.994;4.538;2023-10-09T07:19:10;15.60;99.90
15991;DHT22;8100;50.994;4.538;2023-10-09T07:22:17;15.70;99.90
15991;DHT22;8100;50.994;4.538;2023-10-09T07:25:09;15.70;99.90
15991;DHT22;8100;50.994;4.538;2023-10-09T07:28:13;15.80;99.90
15991;DHT22;8100;50.994;4.538;2023-10-09T07:31:23;15.80;99.90
15991;DHT22;8100;50.994;4.538;2023-10-09T07:34:12;15.90;99.90
15991;DHT22;8100;50.994;4.538;2023-10-09T07:37:38;16.10;99.90
15991;DHT22;8100;50.994;4.538;2023-10-09T07:40:27;16.20;99.90
15991;DHT22;8100;50.994;4.538;2023-10-09T07:43:18;16.40;99.90
15991;DHT22;8100;50.994;4.538;2023-10-09T07:46:13;16.50;99.90
15991;DHT22;8100;50.994;4.538;2023-10-09T07:49:21;16.50;99.90
15991;DHT22;8100;50.994;4.538;2023-10-09T07:52:11;16.60;99.90
15991;DHT22;8100;50.994;4.538;2023-10-09T07:54:58;16.70;99.90
15991;DHT22;8100;50.994;4.538;2023-10-09T07:58:00;16.80;99.90
15991;DHT22;8100;50.994;4.538;2023-10-09T08:00:57;16.80;99.90
15991;DHT22;8100;50.994;4.538;2023-10-09T08:04:02;16.80;88.60
15991;DHT22;8100;50.994;4.538;2023-10-09T08:06:52;16.90;99.90
15991;DHT22;8100;50.994;4.538;2023-10-09T08:09:43;16.90;83.20
15991;DHT22;8100;50.994;4.538;2023-10-09T08:12:32;16.80;92.30
15991;DHT22;8100;50.994;4.538;2023-10-09T08:15:42;16.80;90.10
15991;DHT22;8100;50.994;4.538;2023-10-09T08:18:38;16.80;99.10
15991;DHT22;8100;50.994;4.538;2023-10-09T08:21:30;16.80;93.70
15991;DHT22;8100;50.994;4.538;2023-10-09T08:24:32;16.80;99.00
15991;DHT22;8100;50.994;4.538;2023-10-09T08:27:28;16.90;99.90
15991;DHT22;8100;50.994;4.538;2023-10-09T08:30:32;16.90;87.20
15991;DHT22;8100;50.994;4.538;2023-10-09T08:33:35;17.10;54.10
15991;DHT22;8100;50.994;4.538;2023-10-09T08:36:28;17.20;42.60
15991;DHT22;8100;50.994;4.538;2023-10-09T08:39:22;17.30;27.60
15991;DHT22;8100;50.994;4.538;2023-10-09T08:42:14;17.40;6.80
15991;DHT22;8100;50.994;4.538;2023-10-09T08:45:03;17.50;24.60
15991;DHT22;8100;50.994;4.538;2023-10-09T08:47:53;17.50;1.00
15991;DHT22;8100;50.994;4.538;2023-10-09T08:50:41;17.50;1.00
15991;DHT22;8100;50.994;4.538;2023-10-09T08:53:30;17.60;1.00
15991;DHT22;8100;50.994;4.538;2023-10-09T08:56:20;17.60;1.00
15991;DHT22;8100;50.994;4.538;2023-10-09T08:59:10;17.70;1.00
15991;DHT22;8100;50.994;4.538;2023-10-09T09:01:57;17.80;1.00
15991;DHT22;8100;50.994;4.538;2023-10-09T09:04:45;18.00;1.00
15991;DHT22;8100;50.994;4.538;2023-10-09T09:07:36;18.00;1.00
15991;DHT22;8100;50.994;4.538;2023-10-09T09:10:29;18.00;1.00
15991;DHT22;8100;50.994;4.538;2023-10-09T09:13:21;18.20;1.00
15991;DHT22;8100;50.994;4.538;2023-10-09T09:16:21;18.30;1.00
15991;DHT22;8100;50.994;4.538;2023-10-09T09:19:09;18.50;1.00
15991;DHT22;8100;50.994;4.538;2023-10-09T09:22:05;18.50;1.00
15991;DHT22;8100;50.994;4.538;2023-10-09T09:24:59;18.50;1.00
15991;DHT22;8100;50.994;4.538;2023-10-09T09:27:49;18.60;1.00
15991;DHT22;8100;50.994;4.538;2023-10-09T09:30:40;18.70;1.00
15991;DHT22;8100;50.994;4.538;2023-10-09T09:33:29;18.80;1.00
15991;DHT22;8100;50.994;4.538;2023-10-09T09:36:25;18.80;1.00
15991;DHT22;8100;50.994;4.538;2023-10-09T09:39:15;19.00;1.00
15991;DHT22;8100;50.994;4.538;2023-10-09T09:42:06;19.00;1.00
15991;DHT22;8100;50.994;4.538;2023-10-09T09:45:01;18.90;1.00
15991;DHT22;8100;50.994;4.538;2023-10-09T09:47:50;18.90;1.00
15991;DHT22;8100;50.994;4.538;2023-10-09T09:50:41;18.90;1.00
15991;DHT22;8100;50.994;4.538;2023-10-09T09:53:31;19.00;1.00
15991;DHT22;8100;50.994;4.538;2023-10-09T09:56:22;19.00;1.00
15991;DHT22;8100;50.994;4.538;2023-10-09T09:59:12;19.00;1.00
15991;DHT22;8100;50.994;4.538;2023-10-09T10:02:09;19.00;1.00
15991;DHT22;8100;50.994;4.538;2023-10-09T10:05:00;19.00;1.00
15991;DHT22;8100;50.994;4.538;2023-10-09T10:07:50;19.00;1.00
15991;DHT22;8100;50.994;4.538;2023-10-09T10:10:41;19.00;1.00
15991;DHT22;8100;50.994;4.538;2023-10-09T10:13:55;19.10;1.00
15991;DHT22;8100;50.994;4.538;2023-10-09T10:17:03;19.20;99.90
15991;DHT22;8100;50.994;4.538;2023-10-09T10:20:02;19.30;1.00
15991;DHT22;8100;50.994;4.538;2023-10-09T10:23:19;19.60;1.00
15991;DHT22;8100;50.994;4.538;2023-10-09T10:26:20;19.80;1.00
15991;DHT22;8100;50.994;4.538;2023-10-09T10:29:15;19.90;99.90
15991;DHT22;8100;50.994;4.538;2023-10-09T10:32:09;19.90;1.00
15991;DHT22;8100;50.994;4.538;2023-10-09T10:34:57;19.70;1.00
15991;DHT22;8100;50.994;4.538;2023-10-09T10:37:52;19.60;92.10
15991;DHT22;8100;50.994;4.538;2023-10-09T10:40:51;19.60;1.00
15991;DHT22;8100;50.994;4.538;2023-10-09T10:43:45;19.50;1.00
15991;DHT22;8100;50.994;4.538;2023-10-09T10:46:41;19.50;1.00
15991;DHT22;8100;50.994;4.538;2023-10-09T10:49:29;19.70;1.00
15991;DHT22;8100;50.994;4.538;2023-10-09T10:52:22;19.80;1.00
15991;DHT22;8100;50.994;4.538;2023-10-09T10:55:21;19.70;1.00
15991;DHT22;8100;50.994;4.538;2023-10-09T10:58:26;19.60;1.00
15991;DHT22;8100;50.994;4.538;2023-10-09T11:01:21;19.60;1.00
15991;DHT22;8100;50.994;4.538;2023-10-09T11:04:12;19.60;1.00
15991;DHT22;8100;50.994;4.538;2023-10-09T11:07:00;19.60;1.00
15991;DHT22;8100;50.994;4.538;2023-10-09T11:09:57;19.80;99.90
15991;DHT22;8100;50.994;4.538;2023-10-09T11:12:53;19.90;3.20
15991;DHT22;8100;50.994;4.538;2023-10-09T11:15:56;20.00;1.00
15991;DHT22;8100;50.994;4.538;2023-10-09T11:19:00;19.90;99.90
15991;DHT22;8100;50.994;4.538;2023-10-09T11:21:59;20.00;1.00
15991;DHT22;8100;50.994;4.538;2023-10-09T11:25:11;19.90;1.00
15991;DHT22;8100;50.994;4.538;2023-10-09T11:27:57;20.10;1.00
15991;DHT22;8100;50.994;4.538;2023-10-09T11:31:08;20.20;1.00
15991;DHT22;8100;50.994;4.538;2023-10-09T11:33:57;20.10;1.00
15991;DHT22;8100;50.994;4.538;2023-10-09T11:36:47;20.10;1.00
15991;DHT22;8100;50.994;4.538;2023-10-09T11:39:39;20.20;99.90
15991;DHT22;8100;50.994;4.538;2023-10-09T11:42:36;20.40;1.00
15991;DHT22;8100;50.994;4.538;2023-10-09T11:45:26;20.40;1.00
15991;DHT22;8100;50.994;4.538;2023-10-09T11:48:18;20.20;1.00
15991;DHT22;8100;50.994;4.538;2023-10-09T11:51:14;20.20;1.00
15991;DHT22;8100;50.994;4.538;2023-10-09T11:54:05;20.10;99.90
15991;DHT22;8100;50.994;4.538;2023-10-09T11:56:54;20.10;1.00
15991;DHT22;8100;50.994;4.538;2023-10-09T11:59:41;20.30;1.00
15991;DHT22;8100;50.994;4.538;2023-10-09T12:02:29;20.50;1.00
15991;DHT22;8100;50.994;4.538;2023-10-09T12:05:18;20.60;1.00
15991;DHT22;8100;50.994;4.538;2023-10-09T12:08:05;20.60;1.00
15991;DHT22;8100;50.994;4.538;2023-10-09T12:10:54;20.90;1.00
15991;DHT22;8100;50.994;4.538;2023-10-09T12:13:42;20.90;99.90
15991;DHT22;8100;50.994;4.538;2023-10-09T12:16:29;20.70;99.90
15991;DHT22;8100;50.994;4.538;2023-10-09T12:19:19;20.70;99.90
15991;DHT22;8100;50.994;4.538;2023-10-09T12:22:09;20.80;99.90
15991;DHT22;8100;50.994;4.538;2023-10-09T12:25:02;20.90;99.90
15991;DHT22;8100;50.994;4.538;2023-10-09T12:27:55;20.90;99.90
15991;DHT22;8100;50.994;4.538;2023-10-09T12:30:43;20.90;99.90
15991;DHT22;8100;50.994;4.538;2023-10-09T12:33:36;20.80;99.90
15991;DHT22;8100;50.994;4.538;2023-10-09T12:36:25;20.90;99.90
15991;DHT22;8100;50.994;4.538;2023-10-09T12:39:14;20.90;99.90
15991;DHT22;8100;50.994;4.538;2023-10-09T12:42:04;21.00;96.30
15991;DHT22;8100;50.994;4.538;2023-10-09T12:44:53;20.90;65.10
15991;DHT22;8100;50.994;4.538;2023-10-09T12:47:43;20.90;32.80
15991;DHT22;8100;50.994;4.538;2023-10-09T12:50:34;20.80;1.00
15991;DHT22;8100;50.994;4.538;2023-10-09T12:53:27;20.70;1.00
15991;DHT22;8100;50.994;4.538;2023-10-09T12:56:16;20.70;1.00
15991;DHT22;8100;50.994;4.538;2023-10-09T12:59:04;20.60;1.00
15991;DHT22;8100;50.994;4.538;2023-10-09T13:01:53;20.70;1.00
15991;DHT22;8100;50.994;4.538;2023-10-09T13:04:43;20.80;1.00
15991;DHT22;8100;50.994;4.538;2023-10-09T13:07:30;20.80;1.00
15991;DHT22;8100;50.994;4.538;2023-10-09T13:10:18;20.70;1.00
15991;DHT22;8100;50.994;4.538;2023-10-09T13:13:06;20.80;1.00
15991;DHT22;8100;50.994;4.538;2023-10-09T13:15:57;20.70;1.00
15991;DHT22;8100;50.994;4.538;2023-10-09T13:18:45;20.70;1.00
15991;DHT22;8100;50.994;4.538;2023-10-09T13:21:36;20.60;1.00
15991;DHT22;8100;50.994;4.538;2023-10-09T13:24:24;20.70;1.00
15991;DHT22;8100;50.994;4.538;2023-10-09T13:27:15;20.80;1.00
15991;DHT22;8100;50.994;4.538;2023-10-09T13:30:09;21.10;1.00
15991;DHT22;8100;50.994;4.538;2023-10-09T13:33:07;21.30;1.00
15991;DHT22;8100;50.994;4.538;2023-10-09T13:36:03;21.30;1.00
15991;DHT22;8100;50.994;4.538;2023-10-09T13:38:50;21.40;1.00
15991;DHT22;8100;50.994;4.538;2023-10-09T13:41:39;21.20;1.00
15991;DHT22;8100;50.994;4.538;2023-10-09T13:44:28;21.00;1.00
15991;DHT22;8100;50.994;4.538;2023-10-09T13:47:17;20.90;1.00
15991;DHT22;8100;50.994;4.538;2023-10-09T13:50:09;20.80;1.00
15991;DHT22;8100;50.994;4.538;2023-10-09T13:52:57;20.70;1.00
15991;DHT22;8100;50.994;4.538;2023-10-09T13:55:44;20.70;1.00
15991;DHT22;8100;50.994;4.538;2023-10-09T13:58:31;20.60;1.00
15991;DHT22;8100;50.994;4.538;2023-10-09T14:01:20;20.60;1.00
15991;DHT22;8100;50.994;4.538;2023-10-09T14:04:14;20.50;1.00
15991;DHT22;8100;50.994;4.538;2023-10-09T14:07:04;20.50;1.00
15991;DHT22;8100;50.994;4.538;2023-10-09T14:09:52;20.50;1.00
15991;DHT22;8100;50.994;4.538;2023-10-09T14:12:42;20.50;1.00
15991;DHT22;8100;50.994;4.538;2023-10-09T14:15:29;20.60;1.00
15991;DHT22;8100;50.994;4.538;2023-10-09T14:18:16;20.70;1.00
15991;DHT22;8100;50.994;4.538;2023-10-09T14:21:05;20.70;1.00
15991;DHT22;8100;50.994;4.538;2023-10-09T14:24:02;20.80;20.20
15991;DHT22;8100;50.994;4.538;2023-10-09T14:26:49;20.90;99.90
15991;DHT22;8100;50.994;4.538;2023-10-09T14:29:37;21.00;25.80
15991;DHT22;8100;50.994;4.538;2023-10-09T14:32:26;21.30;2.60
15991;DHT22;8100;50.994;4.538;2023-10-09T14:35:16;21.30;56.70
15991;DHT22;8100;50.994;4.538;2023-10-09T14:38:09;21.30;1.00
15991;DHT22;8100;50.994;4.538;2023-10-09T14:40:59;21.10;14.60
15991;DHT22;8100;50.994;4.538;2023-10-09T14:43:50;21.00;1.00
15991;DHT22;8100;50.994;4.538;2023-10-09T14:46:38;20.90;1.00
15991;DHT22;8100;50.994;4.538;2023-10-09T14:49:26;20.90;53.20
15991;DHT22;8100;50.994;4.538;2023-10-09T14:52:20;20.80;16.10
15991;DHT22;8100;50.994;4.538;2023-10-09T14:55:11;20.70;95.00
15991;DHT22;8100;50.994;4.538;2023-10-09T14:57:58;20.60;99.90
15991;DHT22;8100;50.994;4.538;2023-10-09T15:00:46;20.70;99.90
15991;DHT22;8100;50.994;4.538;2023-10-09T15:03:33;20.60;99.90
15991;DHT22;8100;50.994;4.538;2023-10-09T15:06:23;20.50;99.90
15991;DHT22;8100;50.994;4.538;2023-10-09T15:09:13;20.60;99.90
15991;DHT22;8100;50.994;4.538;2023-10-09T15:12:09;20.70;99.90
15991;DHT22;8100;50.994;4.538;2023-10-09T15:14:57;20.80;99.90
15991;DHT22;8100;50.994;4.538;2023-10-09T15:17:45;20.70;99.90
15991;DHT22;8100;50.994;4.538;2023-10-09T15:20:35;20.70;99.90
15991;DHT22;8100;50.994;4.538;2023-10-09T15:23:24;20.90;99.90
15991;DHT22;8100;50.994;4.538;2023-10-09T15:26:11;21.50;99.90
15991;DHT22;8100;50.994;4.538;2023-10-09T15:29:03;21.20;99.90
15991;DHT22;8100;50.994;4.538;2023-10-09T15:31:52;20.80;99.90
15991;DHT22;8100;50.994;4.538;2023-10-09T15:34:39;20.70;99.90
15991;DHT22;8100;50.994;4.538;2023-10-09T15:37:27;20.80;99.90
15991;DHT22;8100;50.994;4.538;2023-10-09T15:40:15;21.50;99.90
15991;DHT22;8100;50.994;4.538;2023-10-09T15:43:04;22.60;1.00
15991;DHT22;8100;50.994;4.538;2023-10-09T15:45:53;23.40;1.00
15991;DHT22;8100;50.994;4.538;2023-10-09T15:48:40;23.90;1.00
15991;DHT22;8100;50.994;4.538;2023-10-09T15:51:28;24.20;1.00
15991;DHT22;8100;50.994;4.538;2023-10-09T15:54:16;24.10;1.00
15991;DHT22;8100;50.994;4.538;2023-10-09T15:57:05;23.60;1.00
15991;DHT22;8100;50.994;4.538;2023-10-09T15:59:52;23.00;1.00
15991;DHT22;8100;50.994;4.538;2023-10-09T16:02:41;22.60;1.00
15991;DHT22;8100;50.994;4.538;2023-10-09T16:05:29;22.00;1.00
15991;DHT22;8100;50.994;4.538;2023-10-09T16:08:21;21.50;1.00
15991;DHT22;8100;50.994;4.538;2023-10-09T16:11:16;21.40;1.00
15991;DHT22;8100;50.994;4.538;2023-10-09T16:14:04;21.20;1.00
15991;DHT22;8100;50.994;4.538;2023-10-09T16:16:55;20.80;99.90
15991;DHT22;8100;50.994;4.538;2023-10-09T16:19:43;20.50;99.90
15991;DHT22;8100;50.994;4.538;2023-10-09T16:22:31;20.20;1.00
15991;DHT22;8100;50.994;4.538;2023-10-09T16:25:20;19.90;99.90
15991;DHT22;8100;50.994;4.538;2023-10-09T16:28:10;19.60;1.00
15991;DHT22;8100;50.994;4.538;2023-10-09T16:30:57;19.50;1.00
15991;DHT22;8100;50.994;4.538;2023-10-09T16:33:45;19.40;1.00
15991;DHT22;8100;50.994;4.538;2023-10-09T16:36:35;19.40;1.00
15991;DHT22;8100;50.994;4.538;2023-10-09T16:39:22;19.20;1.00
15991;DHT22;8100;50.994;4.538;2023-10-09T16:42:11;19.10;94.40
15991;DHT22;8100;50.994;4.538;2023-10-09T16:44:59;19.00;99.90
15991;DHT22;8100;50.994;4.538;2023-10-09T16:47:47;18.90;99.90
15991;DHT22;8100;50.994;4.538;2023-10-09T16:50:37;18.70;99.90
15991;DHT22;8100;50.994;4.538;2023-10-09T16:53:27;18.50;99.90
15991;DHT22;8100;50.994;4.538;2023-10-09T16:56:14;18.40;99.90
15991;DHT22;8100;50.994;4.538;2023-10-09T16:59:01;18.20;99.90
15991;DHT22;8100;50.994;4.538;2023-10-09T17:01:51;18.10;99.90
15991;DHT22;8100;50.994;4.538;2023-10-09T17:04:39;18.00;99.90
15991;DHT22;8100;50.994;4.538;2023-10-09T17:07:28;17.90;99.90
15991;DHT22;8100;50.994;4.538;2023-10-09T17:10:21;17.70;99.90
15991;DHT22;8100;50.994;4.538;2023-10-09T17:13:12;17.60;99.90
15991;DHT22;8100;50.994;4.538;2023-10-09T17:16:12;17.50;99.90
15991;DHT22;8100;50.994;4.538;2023-10-09T17:19:03;17.30;99.90
15991;DHT22;8100;50.994;4.538;2023-10-09T17:21:52;17.30;99.90
15991;DHT22;8100;50.994;4.538;2023-10-09T17:24:39;17.20;99.90
15991;DHT22;8100;50.994;4.538;2023-10-09T17:27:28;17.20;99.90
15991;DHT22;8100;50.994;4.538;2023-10-09T17:30:15;17.00;99.90
15991;DHT22;8100;50.994;4.538;2023-10-09T17:33:03;17.00;99.90
15991;DHT22;8100;50.994;4.538;2023-10-09T17:35:51;17.00;99.90
15991;DHT22;8100;50.994;4.538;2023-10-09T17:38:39;16.90;99.90
15991;DHT22;8100;50.994;4.538;2023-10-09T17:41:28;16.80;99.90
15991;DHT22;8100;50.994;4.538;2023-10-09T17:44:18;16.70;99.90
15991;DHT22;8100;50.994;4.538;2023-10-09T17:47:07;16.70;99.90
15991;DHT22;8100;50.994;4.538;2023-10-09T17:49:56;16.60;99.90
15991;DHT22;8100;50.994;4.538;2023-10-09T17:52:44;16.50;99.90
15991;DHT22;8100;50.994;4.538;2023-10-09T17:55:34;16.50;99.90
15991;DHT22;8100;50.994;4.538;2023-10-09T17:58:22;16.50;99.90
15991;DHT22;8100;50.994;4.538;2023-10-09T18:01:13;16.50;99.90
15991;DHT22;8100;50.994;4.538;2023-10-09T18:04:00;16.40;99.90
15991;DHT22;8100;50.994;4.538;2023-10-09T18:06:48;16.40;99.90
15991;DHT22;8100;50.994;4.538;2023-10-09T18:09:38;16.40;99.90
15991;DHT22;8100;50.994;4.538;2023-10-09T18:12:26;16.30;99.90
15991;DHT22;8100;50.994;4.538;2023-10-09T18:15:13;16.30;99.90
15991;DHT22;8100;50.994;4.538;2023-10-09T18:18:02;16.20;99.90
15991;DHT22;8100;50.994;4.538;2023-10-09T18:20:52;16.20;99.90
15991;DHT22;8100;50.994;4.538;2023-10-09T18:23:39;16.10;99.90
15991;DHT22;8100;50.994;4.538;2023-10-09T18:26:30;16.10;99.90
15991;DHT22;8100;50.994;4.538;2023-10-09T18:29:17;16.20;99.90
15991;DHT22;8100;50.994;4.538;2023-10-09T18:32:05;16.10;99.90